Time;durP1;ratioP1;P1;durP2;ratioP2;P2;SDS_P1;SDS_P2;PMS_P1;PMS_P2;Temp;Humidity;BMP_temperature;BMP_pressure;BME280_temperature;BME280_humidity;BME280_pressure;Samples;Min_cycle;Max_cycle;Signal;HPM_P1;HPM_P2
2023/01/03 00:01:19;;;;;;;9.30;8.90;;;;;;;2.20;100.00;101423.31;5013440;28;20030;-69
2023/01/03 00:03:45;;;;;;;9.48;9.00;;;;;;;2.24;100.00;101427.41;5013754;28;20029;-70
2023/01/03 00:06:19;;;;;;;9.00;8.60;;;;;;;2.23;100.00;101425.75;5013585;28;20030;-68
2023/01/03 00:08:45;;;;;;;8.90;8.50;;;;;;;2.24;100.00;101423.97;5013374;28;20109;-68
2023/01/03 00:11:13;;;;;;;9.55;9.05;;;;;;;2.24;100.00;101430.03;5012104;28;20104;-68
2023/01/03 00:13:39;;;;;;;9.07;8.68;;;;;;;2.21;100.00;101418.00;5011322;28;20105;-68
2023/01/03 00:16:04;;;;;;;9.68;9.18;;;;;;;2.24;100.00;101430.03;5013631;28;20022;-68
2023/01/03 00:18:30;;;;;;;9.20;8.80;;;;;;;2.32;100.00;101425.13;5016736;28;20033;-68
2023/01/03 00:21:02;;;;;;;9.82;9.32;;;;;;;2.20;100.00;101425.91;5013432;28;20022;-68
2023/01/03 00:23:28;;;;;;;9.93;9.43;;;;;;;2.12;100.00;101426.41;5014901;28;20030;-67
2023/01/03 00:25:53;;;;;;;9.10;8.70;;;;;;;2.15;100.00;101423.63;5013550;28;20590;-69
2023/01/03 00:28:19;;;;;;;9.00;8.60;;;;;;;2.11;100.00;101419.50;5012794;28;20022;-68
2023/01/03 00:30:44;;;;;;;9.57;9.07;;;;;;;2.14;100.00;101426.34;5010660;28;20080;-68
2023/01/03 00:33:09;;;;;;;9.35;8.90;;;;;;;2.12;100.00;101421.19;5012311;28;20394;-68
2023/01/03 00:35:35;;;;;;;9.10;8.70;;;;;;;2.15;100.00;101422.78;5012455;28;20053;-69
2023/01/03 00:38:00;;;;;;;9.38;8.95;;;;;;;2.14;100.00;101424.56;5013220;28;20018;-68
2023/01/03 00:40:26;;;;;;;9.20;8.80;;;;;;;2.19;100.00;101434.72;5013045;28;20105;-68
2023/01/03 00:45:35;;;;;;;9.48;8.98;;;;;;;2.07;100.00;101404.94;5011606;28;20033;-69
2023/01/03 00:48:01;;;;;;;9.30;8.90;;;;;;;2.16;100.00;101424.47;5011909;28;20033;-69
2023/01/03 00:50:26;;;;;;;8.90;8.50;;;;;;;2.10;100.00;101420.44;5011306;28;20049;-68
2023/01/03 00:52:51;;;;;;;9.77;9.27;;;;;;;2.12;100.00;101422.97;5013479;28;20022;-68
2023/01/03 00:55:17;;;;;;;8.70;8.30;;;;;;;2.01;100.00;101417.59;5012847;28;20022;-69
2023/01/03 00:57:42;;;;;;;9.18;8.77;;;;;;;2.00;100.00;101413.28;5011780;28;20069;-67
2023/01/03 01:00:08;;;;;;;9.05;8.65;;;;;;;2.01;100.00;101417.59;5012090;28;20454;-69
2023/01/03 01:02:34;;;;;;;9.15;8.73;;;;;;;2.08;100.00;101421.50;5010179;28;20022;-69
2023/01/03 01:04:59;;;;;;;9.10;8.70;;;;;;;1.89;100.00;101416.56;5012623;28;20025;-69
2023/01/03 01:07:25;;;;;;;9.05;8.65;;;;;;;1.89;100.00;101412.19;5012039;28;20028;-67
2023/01/03 01:09:50;;;;;;;9.70;9.20;;;;;;;1.91;100.00;101418.19;5013698;28;20026;-67
2023/01/03 01:12:16;;;;;;;9.55;9.05;;;;;;;1.96;100.00;101419.66;5011073;28;20133;-68
2023/01/03 01:14:41;;;;;;;9.25;8.80;;;;;;;1.98;100.00;101412.53;5012201;28;20482;-68
2023/01/03 01:17:07;;;;;;;9.35;8.88;;;;;;;1.95;100.00;101408.34;5012378;28;20568;-68
2023/01/03 01:19:43;;;;;;;9.40;8.93;;;;;;;1.98;100.00;101407.28;5010350;28;20030;-67
2023/01/03 01:22:10;;;;;;;9.23;8.77;;;;;;;1.77;100.00;101407.75;5011298;28;20025;-68
2023/01/03 01:24:35;;;;;;;9.38;8.88;;;;;;;1.84;100.00;101398.56;5012515;28;20058;-68
2023/01/03 01:27:02;;;;;;;9.02;8.63;;;;;;;1.82;100.00;101396.97;5012972;28;20060;-68
2023/01/03 01:29:27;;;;;;;9.55;9.05;;;;;;;1.75;100.00;101395.69;5012204;28;20057;-67
2023/01/03 01:31:53;;;;;;;9.68;9.18;;;;;;;1.61;100.00;101389.53;5011999;28;20026;-68
2023/01/03 01:34:18;;;;;;;9.60;9.10;;;;;;;1.45;100.00;101378.34;5012233;28;20032;-68
2023/01/03 01:36:45;;;;;;;9.30;8.85;;;;;;;1.53;100.00;101380.50;5006961;28;20394;-67
2023/01/03 01:39:21;;;;;;;9.20;8.80;;;;;;;1.52;100.00;101391.88;5010343;28;20439;-67
2023/01/03 01:44:54;;;;;;;9.25;8.82;;;;;;;1.65;100.00;101377.13;5011641;28;20040;-68
2023/01/03 01:47:23;;;;;;;9.30;8.88;;;;;;;1.70;100.00;101377.69;5011884;28;20018;-69
2023/01/03 01:49:53;;;;;;;9.35;8.90;;;;;;;1.77;100.00;101373.72;5011899;28;20032;-68
2023/01/03 01:52:20;;;;;;;9.52;9.02;;;;;;;1.80;100.00;101372.69;5008099;28;20026;-68
2023/01/03 01:54:49;;;;;;;9.48;8.98;;;;;;;1.76;100.00;101363.34;5009102;28;20053;-68
2023/01/03 01:57:17;;;;;;;9.82;9.32;;;;;;;1.85;100.00;101376.69;5009668;28;20042;-68
2023/01/03 01:59:43;;;;;;;9.73;9.23;;;;;;;1.87;100.00;101380.06;5011842;28;20105;-68
2023/01/03 02:02:10;;;;;;;9.10;8.70;;;;;;;1.97;100.00;101390.75;5010344;28;20030;-68
2023/01/03 02:04:39;;;;;;;9.52;9.02;;;;;;;1.97;100.00;101387.31;5011500;28;20030;-67
2023/01/03 02:07:06;;;;;;;10.20;9.60;;;;;;;1.97;100.00;101382.91;5008533;28;20029;-68
2023/01/03 02:09:33;;;;;;;9.13;8.73;;;;;;;1.93;100.00;101392.75;5011657;28;20370;-68
2023/01/03 02:15:13;;;;;;;8.93;8.52;;;;;;;2.10;100.00;101398.66;5009457;28;20040;-69
2023/01/03 02:17:48;;;;;;;9.60;9.10;;;;;;;2.09;100.00;101410.09;5012036;28;20105;-69
2023/01/03 02:20:13;;;;;;;;;;;;;;;2.17;100.00;101400.78;5011883;28;20393;-69
2023/01/03 02:23:32;;;;;;;9.52;9.02;;;;;;;2.22;100.00;101408.34;5013091;28;19920;-69
2023/01/03 02:26:09;;;;;;;8.73;8.32;;;;;;;2.31;100.00;101404.28;5004440;28;20092;-69
2023/01/03 02:28:50;;;;;;;8.93;8.52;;;;;;;2.27;100.00;101400.19;5014103;28;20030;-69
2023/01/03 02:31:45;;;;;;;9.30;8.82;;;;;;;2.22;100.00;101403.97;5013949;28;20048;-68
2023/01/03 02:34:38;;;;;;;;;;;;;;;2.07;100.00;101410.19;5015895;28;20493;-69
2023/01/03 02:37:35;;;;;;;9.43;8.93;;;;;;;1.99;100.00;101411.63;5044999;28;19917;-69
2023/01/03 02:40:21;;;;;;;8.73;8.32;;;;;;;2.07;100.00;101414.59;5009190;28;20049;-69
2023/01/03 02:43:07;;;;;;;9.68;9.18;;;;;;;2.14;100.00;101415.88;5013527;28;20026;-68
2023/01/03 02:45:35;;;;;;;8.90;8.50;;;;;;;1.94;100.00;101409.28;5012287;28;20030;-69
2023/01/03 02:48:06;;;;;;;9.40;8.90;;;;;;;1.90;100.00;101405.16;5015572;28;20025;-68
2023/01/03 02:50:47;;;;;;;9.13;8.70;;;;;;;1.91;100.00;101407.72;5015364;28;20131;-68
2023/01/03 02:53:17;;;;;;;9.35;8.88;;;;;;;1.94;100.00;101407.50;5015284;28;20407;-68
2023/01/03 02:55:46;;;;;;;9.73;9.23;;;;;;;1.93;100.00;101403.22;5009398;28;20106;-68
2023/01/03 02:58:19;;;;;;;9.40;8.90;;;;;;;1.96;100.00;101398.72;5012697;28;20048;-68
2023/01/03 03:00:48;;;;;;;9.98;9.48;;;;;;;1.86;100.00;101399.31;5013550;28;20385;-69
2023/01/03 03:03:18;;;;;;;9.20;8.80;;;;;;;1.84;100.00;101410.81;5014212;28;20109;-69
2023/01/03 03:05:56;;;;;;;9.50;9.00;;;;;;;1.78;100.00;101403.34;5014942;28;20041;-68
2023/01/03 03:08:22;;;;;;;9.68;9.18;;;;;;;1.80;100.00;101404.09;5013875;28;20491;-68
2023/01/03 03:13:40;;;;;;;9.15;8.75;;;;;;;1.75;100.00;101408.75;5013468;28;20409;-68
2023/01/03 03:16:46;;;;;;;9.00;8.60;;;;;;;1.78;100.00;101406.81;5013764;28;20034;-68
2023/01/03 03:25:26;;;;;;;9.30;8.80;;;;;;;1.67;100.00;101402.22;4990807;28;20406;-68
2023/01/03 03:30:44;;;;;;;9.55;9.05;;;;;;;1.75;100.00;101422.66;5009596;28;20037;-69
2023/01/03 03:33:13;;;;;;;9.40;8.90;;;;;;;1.76;100.00;101442.66;5013358;28;20040;-70
2023/01/03 03:36:09;;;;;;;9.25;8.85;;;;;;;1.64;100.00;101443.44;5013857;28;20068;-69
2023/01/03 03:38:41;;;;;;;9.25;8.85;;;;;;;1.73;100.00;101453.31;5014224;28;20028;-68
2023/01/03 03:47:23;;;;;;;9.75;9.25;;;;;;;1.55;100.00;101446.63;5013088;28;20116;-69
2023/01/03 03:49:51;;;;;;;9.68;9.18;;;;;;;1.85;100.00;101449.13;5010863;28;20036;-68
2023/01/03 03:52:23;;;;;;;10.10;9.57;;;;;;;1.82;100.00;101450.13;5013346;28;20022;-68
2023/01/03 03:54:56;;;;;;;9.57;9.07;;;;;;;1.84;100.00;101452.66;5013746;28;20385;-69
2023/01/03 03:57:36;;;;;;;9.40;8.90;;;;;;;1.68;100.00;101452.75;5008635;28;20042;-69
2023/01/03 04:00:08;;;;;;;9.10;8.70;;;;;;;1.75;100.00;101448.00;5012812;28;20022;-69
2023/01/03 04:02:35;;;;;;;9.02;8.63;;;;;;;1.86;100.00;101461.25;5012469;28;20116;-69
2023/01/03 04:05:04;;;;;;;9.60;9.10;;;;;;;1.89;100.00;101459.28;5013698;28;20029;-69
2023/01/03 04:07:30;;;;;;;9.43;8.93;;;;;;;1.78;100.00;101466.13;5012058;28;20030;-69
2023/01/03 04:09:56;;;;;;;9.43;8.93;;;;;;;1.85;100.00;101465.66;5013297;28;20030;-69
2023/01/03 04:12:22;;;;;;;9.05;8.65;;;;;;;1.83;100.00;101462.25;5014134;28;20489;-71
2023/01/03 04:14:47;;;;;;;9.20;8.80;;;;;;;1.80;100.00;101467.69;5013949;28;20045;-69
2023/01/03 04:17:13;;;;;;;9.75;9.25;;;;;;;1.76;100.00;101476.66;5013445;28;20430;-69
2023/01/03 04:19:38;;;;;;;9.60;9.10;;;;;;;1.75;100.00;101476.75;5014554;28;20026;-69
2023/01/03 04:22:04;;;;;;;9.00;8.60;;;;;;;1.87;100.00;101474.25;5010493;28;20054;-69
2023/01/03 04:24:29;;;;;;;9.35;8.85;;;;;;;1.81;100.00;101472.00;5013485;28;20026;-69
2023/01/03 04:26:55;;;;;;;10.27;9.68;;;;;;;1.93;100.00;101473.03;5011236;28;20025;-68
2023/01/03 04:29:20;;;;;;;9.60;9.10;;;;;;;2.01;100.00;101476.00;5012181;28;20474;-68
2023/01/03 04:31:46;;;;;;;10.25;9.68;;;;;;;1.98;100.00;101472.72;5013046;28;20026;-68
2023/01/03 04:34:11;;;;;;;9.02;8.63;;;;;;;1.99;100.00;101477.03;5015420;28;20025;-67
2023/01/03 04:36:36;;;;;;;9.15;8.65;;;;;;;2.08;100.00;101484.31;5010063;28;20041;-68
2023/01/03 04:39:02;;;;;;;8.52;8.13;;;;;;;1.95;100.00;101471.13;5013138;28;20022;-68
2023/01/03 04:41:27;;;;;;;10.75;10.15;;;;;;;1.74;100.00;101489.00;5005295;28;20064;-68
2023/01/03 04:44:03;;;;;;;9.25;8.75;;;;;;;1.95;100.00;101486.84;5011515;28;20408;-69
2023/01/03 04:46:34;;;;;;;9.55;9.05;;;;;;;2.03;100.00;101488.97;5009531;28;20026;-68
2023/01/03 04:49:00;;;;;;;9.38;8.88;;;;;;;1.73;100.00;101489.94;5010048;28;20053;-69
2023/01/03 04:51:26;;;;;;;10.57;9.98;;;;;;;1.70;100.00;101498.00;5022039;28;23740;-68
2023/01/03 04:53:52;;;;;;;10.60;10.00;;;;;;;1.86;100.00;101492.66;5001565;28;20161;-69
2023/01/03 04:56:22;;;;;;;9.98;9.48;;;;;;;1.90;100.00;101512.44;5005007;28;20022;-68
2023/01/03 04:58:48;;;;;;;10.23;9.63;;;;;;;1.69;100.00;101493.69;5007472;28;20180;-68
2023/01/03 05:01:13;;;;;;;9.32;8.85;;;;;;;1.82;100.00;101501.59;5006705;28;20484;-67
2023/01/03 05:03:39;;;;;;;9.73;9.23;;;;;;;1.84;100.00;101500.59;5012044;28;20030;-68
2023/01/03 05:06:07;;;;;;;9.80;9.30;;;;;;;1.73;100.00;101499.56;5010834;28;20037;-68
2023/01/03 05:08:33;;;;;;;9.50;9.00;;;;;;;1.85;100.00;101504.06;5006848;28;20090;-68
2023/01/03 05:10:59;;;;;;;9.93;9.32;;;;;;;1.66;100.00;101497.31;5011975;28;20033;-68
2023/01/03 05:13:25;;;;;;;9.63;9.13;;;;;;;1.67;100.00;101501.63;5012478;28;20401;-67
2023/01/03 05:15:51;;;;;;;10.27;9.68;;;;;;;1.76;100.00;101518.50;5008295;28;20038;-69
2023/01/03 05:18:16;;;;;;;10.10;9.55;;;;;;;1.77;100.00;101511.53;5007916;28;20034;-68
2023/01/03 05:26:18;;;;;;;9.82;9.32;;;;;;;1.67;100.00;101516.47;5010726;28;20256;-69
2023/01/03 05:28:49;;;;;;;10.02;9.52;;;;;;;1.74;100.00;101523.00;5012005;28;20109;-68
2023/01/03 05:31:15;;;;;;;10.13;9.57;;;;;;;1.78;100.00;101528.91;5012003;28;20390;-68
2023/01/03 05:33:40;;;;;;;10.63;9.98;;;;;;;1.77;100.00;101524.63;5009352;28;20032;-69
2023/01/03 05:36:07;;;;;;;9.57;9.07;;;;;;;1.76;100.00;101536.00;5011276;28;20056;-68
2023/01/03 05:38:33;;;;;;;9.43;8.93;;;;;;;1.66;100.00;101526.09;5011223;28;20042;-68
2023/01/03 05:40:59;;;;;;;9.85;9.35;;;;;;;1.52;100.00;101517.41;5012744;28;20385;-68
2023/01/03 05:43:24;;;;;;;10.05;9.52;;;;;;;1.33;100.00;101528.97;5011463;28;20036;-68
2023/01/03 05:45:51;;;;;;;10.63;10.02;;;;;;;1.46;100.00;101536.06;5011913;28;20037;-67
2023/01/03 05:48:17;;;;;;;9.98;9.48;;;;;;;1.57;100.00;101531.03;5009966;28;20040;-68
2023/01/03 05:50:43;;;;;;;10.13;9.63;;;;;;;1.65;100.00;101536.66;5011689;28;20528;-68
2023/01/03 05:53:09;;;;;;;9.68;9.18;;;;;;;1.59;100.00;101534.41;5009365;28;20033;-68
2023/01/03 05:55:36;;;;;;;9.95;9.45;;;;;;;1.65;100.00;101539.28;5011507;28;20041;-69
2023/01/03 05:58:02;;;;;;;10.57;9.98;;;;;;;1.62;100.00;101534.22;5009863;28;20137;-68
2023/01/03 06:00:28;;;;;;;9.70;9.20;;;;;;;1.51;100.00;101549.72;5008447;28;20029;-67
2023/01/03 06:02:54;;;;;;;9.63;9.13;;;;;;;1.70;100.00;101545.06;5011095;28;20445;-67
2023/01/03 06:05:19;;;;;;;10.27;9.73;;;;;;;1.73;100.00;101550.09;5010895;28;20026;-68
2023/01/03 06:07:45;;;;;;;10.40;9.80;;;;;;;1.91;100.00;101558.63;5009899;28;20034;-67
2023/01/03 06:10:10;;;;;;;10.65;10.05;;;;;;;1.77;100.00;101559.47;5008649;28;20105;-68
2023/01/03 06:12:36;;;;;;;9.25;8.85;;;;;;;2.04;100.00;101566.56;5009713;28;20030;-68
2023/01/03 06:15:02;;;;;;;9.50;9.00;;;;;;;1.78;100.00;101563.75;5009561;28;20053;-69
2023/01/03 06:20:12;;;;;;;9.80;9.30;;;;;;;-143.83;100.00;62900.06;5011941;28;20496;-67
2023/01/03 06:22:37;;;;;;;9.68;9.18;;;;;;;-143.83;100.00;62900.06;5007253;28;20033;-68
2023/01/03 06:25:03;;;;;;;9.73;9.23;;;;;;;-143.83;100.00;62900.06;5010756;28;20052;-69
2023/01/03 06:27:29;;;;;;;10.45;9.85;;;;;;;-143.83;100.00;62900.06;5008561;28;20507;-68
2023/01/03 06:29:54;;;;;;;9.98;9.43;;;;;;;-143.83;100.00;62900.06;5008221;28;20828;-72
2023/01/03 06:32:20;;;;;;;9.73;9.23;;;;;;;-143.83;100.00;62900.06;5006369;28;20045;-71
2023/01/03 06:34:45;;;;;;;9.07;8.68;;;;;;;-143.83;100.00;62900.06;5003310;28;20057;-72
2023/01/03 06:37:10;;;;;;;9.98;9.48;;;;;;;-143.83;100.00;62900.06;5011407;28;20084;-71
2023/01/03 06:39:36;;;;;;;9.93;9.43;;;;;;;-143.83;100.00;62900.06;5010694;28;20026;-70
2023/01/03 06:42:38;;;;;;;10.15;9.63;;;;;;;-143.83;100.00;62900.06;5000422;28;20390;-67
2023/01/03 06:53:10;;;;;;;9.65;9.15;;;;;;;-143.83;100.00;62900.06;5004602;28;20092;-66
2023/01/03 06:53:11;;;;;;;8.80;8.40;;;;;;;-143.83;100.00;62900.06;5009959;28;19967;-71
2023/01/03 06:55:36;;;;;;;;;;;;;;;-143.83;100.00;62900.06;5010397;28;20488;-69
2023/01/03 06:58:02;;;;;;;9.32;8.82;;;;;;;-143.83;100.00;62900.06;5008408;28;19932;-68
2023/01/03 07:00:28;;;;;;;9.50;9.00;;;;;;;-143.83;100.00;62900.06;5007690;28;20029;-68
2023/01/03 07:02:53;;;;;;;10.27;9.70;;;;;;;-143.83;100.00;62900.06;5008701;28;20026;-67
2023/01/03 07:05:19;;;;;;;10.35;9.77;;;;;;;-143.83;100.00;62900.06;5010663;28;20029;-68
2023/01/03 07:07:44;;;;;;;10.23;9.68;;;;;;;-143.83;100.00;62900.06;5006145;28;20079;-66
2023/01/03 07:10:10;;;;;;;8.93;8.52;;;;;;;-143.83;100.00;62900.06;5010651;28;20030;-70
2023/01/03 07:15:19;;;;;;;8.75;8.35;;;;;;;-143.83;100.00;62900.06;5010804;28;20056;-71
2023/01/03 07:17:44;;;;;;;8.77;8.38;;;;;;;-143.83;100.00;62900.06;5011776;28;20057;-69
2023/01/03 07:20:10;;;;;;;8.80;8.40;;;;;;;-143.83;100.00;62900.06;5013758;28;20041;-72
2023/01/03 07:22:35;;;;;;;8.88;8.48;;;;;;;-143.83;100.00;62900.06;5012331;28;20037;-70
2023/01/03 07:25:01;;;;;;;8.70;8.30;;;;;;;-143.83;100.00;62900.06;5014450;28;20022;-68
2023/01/03 07:27:26;;;;;;;8.88;8.48;;;;;;;-143.83;100.00;62900.06;5011496;28;20053;-68
2023/01/03 07:29:52;;;;;;;9.00;8.60;;;;;;;-143.83;100.00;62900.06;5013145;28;20026;-70
2023/01/03 07:32:18;;;;;;;9.18;8.77;;;;;;;-143.83;100.00;62900.06;5011196;28;20100;-73
2023/01/03 07:34:43;;;;;;;9.43;9.02;;;;;;;-143.83;100.00;62900.06;5007326;28;20453;-70
2023/01/03 07:37:08;;;;;;;9.02;8.63;;;;;;;-143.83;100.00;62900.06;5012314;28;20029;-69
2023/01/03 07:39:34;;;;;;;9.30;8.90;;;;;;;-143.83;100.00;62900.06;5014777;28;20022;-69
2023/01/03 07:44:43;;;;;;;9.43;9.02;;;;;;;-143.83;100.00;62900.06;5008009;28;20087;-71
2023/01/03 07:47:09;;;;;;;9.80;9.40;;;;;;;-143.83;100.00;62900.06;5009632;28;20037;-69
2023/01/03 07:49:34;;;;;;;11.73;11.13;;;;;;;-143.83;100.00;62900.06;5013063;28;20065;-70
2023/01/03 07:52:00;;;;;;;10.25;9.75;;;;;;;-143.83;100.00;62900.06;5012941;28;20029;-70
2023/01/03 07:54:25;;;;;;;9.93;9.52;;;;;;;-143.83;100.00;62900.06;5013537;28;20034;-71
2023/01/03 07:56:51;;;;;;;10.15;9.68;;;;;;;-143.83;100.00;62900.06;5013474;28;20032;-70
2023/01/03 07:59:16;;;;;;;10.20;9.70;;;;;;;-143.83;100.00;62900.06;5011762;28;20034;-69
2023/01/03 08:01:41;;;;;;;9.70;9.30;;;;;;;-143.83;100.00;62900.06;5011425;28;20018;-70
2023/01/03 08:04:07;;;;;;;9.88;9.48;;;;;;;-143.83;100.00;62900.06;5011763;28;20041;-70
2023/01/03 08:06:33;;;;;;;9.80;9.40;;;;;;;-143.83;100.00;62900.06;5013437;28;20061;-69
2023/01/03 08:14:26;;;;;;;10.55;10.05;;;;;;;-143.83;100.00;62900.06;5006550;28;20057;-71
2023/01/03 08:16:52;;;;;;;10.65;10.15;;;;;;;-143.83;100.00;62900.06;5012267;28;20473;-72
2023/01/03 08:19:17;;;;;;;9.98;9.57;;;;;;;-143.83;100.00;62900.06;5013078;28;20435;-72
2023/01/03 08:21:43;;;;;;;9.93;9.52;;;;;;;-143.83;100.00;62900.06;5010489;28;20026;-73
2023/01/03 08:24:08;;;;;;;10.05;9.65;;;;;;;-143.83;100.00;62900.06;5012258;28;20025;-70
2023/01/03 08:26:34;;;;;;;10.30;9.80;;;;;;;-143.83;100.00;62900.06;5013322;28;20152;-72
2023/01/03 08:28:59;;;;;;;10.55;10.05;;;;;;;-143.83;100.00;62900.06;5012791;28;20473;-72
2023/01/03 08:31:31;;;;;;;10.50;10.00;;;;;;;-143.83;100.00;62900.06;4996069;28;20080;-71
2023/01/03 08:34:02;;;;;;;10.52;10.02;;;;;;;-143.83;100.00;62900.06;5012564;28;20026;-68
2023/01/03 08:36:33;;;;;;;10.48;9.98;;;;;;;-143.83;100.00;62900.06;5008052;28;20036;-70
2023/01/03 08:39:04;;;;;;;10.75;10.25;;;;;;;-143.83;100.00;62900.06;5011396;28;20112;-69
2023/01/03 08:41:35;;;;;;;10.73;10.23;;;;;;;-143.83;100.00;62900.06;5009085;28;20083;-69
2023/01/03 08:44:05;;;;;;;10.52;10.02;;;;;;;-143.83;100.00;62900.06;5011169;28;20061;-71
2023/01/03 08:46:32;;;;;;;10.68;10.18;;;;;;;-143.83;100.00;62900.06;5012444;28;20029;-70
2023/01/03 08:48:58;;;;;;;10.80;10.30;;;;;;;-143.83;100.00;62900.06;5006217;28;20070;-71
2023/01/03 08:51:25;;;;;;;10.48;9.98;;;;;;;-143.83;100.00;62900.06;5009551;28;20061;-75
2023/01/03 08:53:52;;;;;;;10.52;10.02;;;;;;;-143.83;100.00;62900.06;5011413;28;20584;-71
2023/01/03 08:56:18;;;;;;;10.43;9.93;;;;;;;-143.83;100.00;62900.06;5008110;28;20030;-71
2023/01/03 08:58:44;;;;;;;10.07;9.68;;;;;;;-143.83;100.00;62900.06;5011983;28;20050;-70
2023/01/03 09:01:10;;;;;;;10.48;9.98;;;;;;;-143.83;100.00;62900.06;5011195;28;20105;-73
2023/01/03 09:03:36;;;;;;;10.45;9.95;;;;;;;-143.83;100.00;62900.06;5043487;28;20036;-71
2023/01/03 09:06:03;;;;;;;10.82;10.32;;;;;;;-143.83;100.00;62900.06;5006679;28;20076;-69
2023/01/03 09:08:33;;;;;;;10.50;10.00;;;;;;;-143.83;100.00;62900.06;5011328;28;20026;-72
2023/01/03 09:11:03;;;;;;;10.20;9.80;;;;;;;-143.83;100.00;62900.06;5008919;28;20124;-71
2023/01/03 09:13:29;;;;;;;10.60;10.10;;;;;;;-143.83;100.00;62900.06;5013219;28;20022;-70
2023/01/03 09:16:09;;;;;;;10.55;10.05;;;;;;;-143.83;100.00;62900.06;5009538;28;20026;-70
2023/01/03 09:18:36;;;;;;;11.05;10.55;;;;;;;-143.83;100.00;62900.06;5008558;28;20072;-70
2023/01/03 09:21:02;;;;;;;10.45;9.95;;;;;;;-143.83;100.00;62900.06;5012005;28;20061;-69
2023/01/03 09:23:28;;;;;;;10.43;9.93;;;;;;;-143.83;100.00;62900.06;5012001;28;20076;-69
2023/01/03 09:25:53;;;;;;;11.20;10.70;;;;;;;-143.83;100.00;62900.06;5011008;28;20026;-73
2023/01/03 09:28:19;;;;;;;10.40;9.90;;;;;;;-143.83;100.00;62900.06;5007991;28;20420;-75
2023/01/03 09:30:44;;;;;;;10.40;9.90;;;;;;;-143.83;100.00;62900.06;5012465;28;20473;-69
2023/01/03 09:33:10;;;;;;;11.00;10.50;;;;;;;-143.83;100.00;62900.06;5008781;28;20129;-68
2023/01/03 09:35:36;;;;;;;10.80;10.30;;;;;;;-143.83;100.00;62900.06;5008729;28;20566;-71
2023/01/03 09:38:02;;;;;;;10.85;10.35;;;;;;;-143.83;100.00;62900.06;5010595;28;20108;-69
2023/01/03 09:40:29;;;;;;;11.80;11.20;;;;;;;-143.83;100.00;62900.06;5012953;28;20113;-69
2023/01/03 09:43:12;;;;;;;12.13;11.52;;;;;;;-143.83;100.00;62900.06;5010335;28;20054;-68
2023/01/03 09:45:42;;;;;;;11.15;10.65;;;;;;;-143.83;100.00;62900.06;5007684;28;20088;-67
2023/01/03 09:48:26;;;;;;;11.10;10.60;;;;;;;-143.83;100.00;62900.06;5009048;28;20036;-70
2023/01/03 09:50:51;;;;;;;10.85;10.35;;;;;;;-143.83;100.00;62900.06;5008575;28;20027;-72
2023/01/03 10:05:23;;;;;;;12.65;11.95;;;;;;;-143.83;100.00;62900.06;5004444;28;20171;-70
2023/01/03 10:08:04;;;;;;;14.55;13.65;;;;;;;-143.83;100.00;62900.06;5004633;28;20485;-68
2023/01/03 10:10:41;;;;;;;12.95;12.25;;;;;;;-143.83;100.00;62900.06;5010112;28;20037;-66
2023/01/03 10:13:16;;;;;;;11.95;11.35;;;;;;;-143.83;100.00;62900.06;5009574;28;20022;-68
2023/01/03 10:15:44;;;;;;;13.52;12.73;;;;;;;-143.83;100.00;62900.06;5004477;28;20087;-67
2023/01/03 10:18:47;;;;;;;12.25;11.55;;;;;;;-143.83;100.00;62900.06;5003961;28;20038;-67
2023/01/03 10:21:18;;;;;;;10.65;10.15;;;;;;;-143.83;100.00;62900.06;5007320;28;20029;-66
2023/01/03 10:23:46;;;;;;;10.98;10.38;;;;;;;-143.83;100.00;62900.06;5005370;28;20029;-66
2023/01/03 10:26:12;;;;;;;10.27;9.77;;;;;;;-143.83;100.00;62900.06;5011817;28;20022;-67
2023/01/03 10:28:42;;;;;;;11.07;10.48;;;;;;;-143.83;100.00;62900.06;5009952;28;20025;-67
2023/01/03 10:31:13;;;;;;;10.63;10.13;;;;;;;-143.83;100.00;62900.06;5008902;28;20045;-66
2023/01/03 10:33:48;;;;;;;11.57;10.98;;;;;;;-143.83;100.00;62900.06;5003403;28;20031;-66
2023/01/03 10:36:16;;;;;;;10.60;10.07;;;;;;;-143.83;100.00;62900.06;5008659;28;20029;-67
2023/01/03 10:38:43;;;;;;;11.35;10.75;;;;;;;-143.83;100.00;62900.06;5007080;28;20370;-67
2023/01/03 10:41:41;;;;;;;11.50;10.90;;;;;;;-143.83;100.00;62900.06;5009192;28;20033;-75
2023/01/03 10:44:20;;;;;;;11.02;10.43;;;;;;;-143.83;100.00;62900.06;5024634;28;20030;-70
2023/01/03 10:46:52;;;;;;;10.38;9.88;;;;;;;-143.83;100.00;62900.06;5041406;28;20042;-70
2023/01/03 10:49:20;;;;;;;10.25;9.75;;;;;;;-143.83;100.00;62900.06;5014014;28;20029;-71
2023/01/03 10:51:45;;;;;;;10.00;9.50;;;;;;;-143.83;100.00;62900.06;5012989;28;20497;-70
2023/01/03 10:54:17;;;;;;;10.40;9.90;;;;;;;-143.83;100.00;62900.06;5014738;28;20176;-68
2023/01/03 10:56:43;;;;;;;10.70;10.20;;;;;;;-143.83;100.00;62900.06;5011893;28;20017;-71
2023/01/03 10:59:10;;;;;;;9.98;9.48;;;;;;;-143.83;100.00;62900.06;5013325;28;20519;-68
2023/01/03 11:01:36;;;;;;;11.00;10.40;;;;;;;-143.83;100.00;62900.06;5014047;28;20021;-68
2023/01/03 11:04:17;;;;;;;10.15;9.65;;;;;;;-143.83;100.00;62900.06;5015847;28;20075;-71
2023/01/03 11:07:08;;;;;;;10.05;9.55;;;;;;;-143.83;100.00;62900.06;5011610;28;20476;-69
2023/01/03 11:09:50;;;;;;;10.98;10.38;;;;;;;-143.83;100.00;62900.06;5011221;28;20042;-71
2023/01/03 11:12:28;;;;;;;10.57;10.07;;;;;;;-143.83;100.00;62900.06;5013794;28;20033;-71
2023/01/03 11:14:56;;;;;;;10.93;10.32;;;;;;;-143.83;100.00;62900.06;5013880;28;20272;-73
2023/01/03 11:17:26;;;;;;;10.90;10.32;;;;;;;-143.83;100.00;62900.06;5012574;28;20117;-71
2023/01/03 11:19:53;;;;;;;10.88;10.30;;;;;;;-143.83;100.00;62900.06;5012907;28;20030;-71
2023/01/03 11:22:54;;;;;;;10.90;10.30;;;;;;;-143.83;100.00;62900.06;5010550;28;20358;-69
2023/01/03 11:25:26;;;;;;;9.90;9.40;;;;;;;-143.83;100.00;62900.06;5010755;28;20133;-68
2023/01/03 11:28:19;;;;;;;10.25;9.75;;;;;;;-143.83;100.00;62900.06;5011362;28;20028;-69
2023/01/03 11:30:58;;;;;;;9.90;9.40;;;;;;;-143.83;100.00;62900.06;5012039;28;20092;-70
2023/01/03 11:33:38;;;;;;;10.18;9.68;;;;;;;-143.83;100.00;62900.06;5013115;28;20033;-72
2023/01/03 11:36:12;;;;;;;10.88;10.32;;;;;;;-143.83;100.00;62900.06;5010717;28;20034;-69
2023/01/03 11:38:56;;;;;;;10.40;9.90;;;;;;;-143.83;100.00;62900.06;5010594;28;20030;-71
2023/01/03 11:41:43;;;;;;;10.27;9.77;;;;;;;-143.83;100.00;62900.06;5010109;28;20051;-69
2023/01/03 11:44:47;;;;;;;9.93;9.43;;;;;;;-143.83;100.00;62900.06;5011327;28;20038;-70
2023/01/03 11:47:12;;;;;;;10.07;9.57;;;;;;;-143.83;100.00;62900.06;4995434;28;20093;-69
2023/01/03 11:49:56;;;;;;;9.85;9.35;;;;;;;-143.83;100.00;62900.06;5011348;28;20022;-68
2023/01/03 11:52:43;;;;;;;10.15;9.65;;;;;;;-143.83;100.00;62900.06;5009886;28;20584;-68
2023/01/03 11:55:33;;;;;;;9.95;9.45;;;;;;;-143.83;100.00;62900.06;5009532;28;20096;-70
2023/01/03 11:58:14;;;;;;;10.02;9.52;;;;;;;-143.83;100.00;62900.06;5011841;28;20121;-71
2023/01/03 12:00:45;;;;;;;9.52;9.13;;;;;;;-143.83;100.00;62900.06;5009834;28;20762;-69
2023/01/03 12:03:23;;;;;;;10.95;10.35;;;;;;;-143.83;100.00;62900.06;5009162;28;20029;-71
2023/01/03 12:06:28;;;;;;;10.48;9.98;;;;;;;-143.83;100.00;62900.06;5011931;28;20030;-71
2023/01/03 12:09:12;;;;;;;9.90;9.40;;;;;;;-143.83;100.00;62900.06;5008643;28;20047;-68
2023/01/03 12:12:10;;;;;;;10.13;9.63;;;;;;;-143.83;100.00;62900.06;5041044;28;20046;-71
2023/01/03 12:14:53;;;;;;;10.25;9.75;;;;;;;-143.83;100.00;62900.06;4961771;28;20041;-68
2023/01/03 12:17:25;;;;;;;11.10;10.52;;;;;;;-143.83;100.00;62900.06;5007294;28;20045;-72
2023/01/03 12:20:00;;;;;;;10.20;9.70;;;;;;;-143.83;100.00;62900.06;5013249;28;20108;-69
2023/01/03 12:22:39;;;;;;;9.68;9.25;;;;;;;-143.83;100.00;62900.06;5009387;28;20377;-69
2023/01/03 12:25:17;;;;;;;9.85;9.38;;;;;;;-143.83;100.00;62900.06;5009043;28;20045;-69
2023/01/03 12:27:48;;;;;;;9.77;9.32;;;;;;;-143.83;100.00;62900.06;5008412;28;20128;-68
2023/01/03 12:30:36;;;;;;;10.13;9.63;;;;;;;-143.83;100.00;62900.06;5010120;28;20029;-71